createdAt,value
2018-08-27T00:00:16.135Z,101077.45
2018-08-27T00:02:44.927Z,101076.05
2018-08-27T00:05:13.920Z,101070.27
2018-08-27T00:07:42.546Z,101071.77
2018-08-27T00:10:11.080Z,101063.68
2018-08-27T00:12:40.182Z,101070.56
2018-08-27T00:15:09.016Z,101058.07
2018-08-27T00:17:37.791Z,101056.17
2018-08-27T00:20:06.541Z,101056.98
2018-08-27T00:22:36.629Z,101054.50
2018-08-27T00:25:06.843Z,101053.28
2018-08-27T00:27:36.719Z,101051.93
2018-08-27T00:30:05.813Z,101051.80
2018-08-27T00:32:36.299Z,101047.44
2018-08-27T00:35:08.134Z,101056.03
2018-08-27T00:37:38.220Z,101058.97
2018-08-27T00:40:06.987Z,101058.62
2018-08-27T00:42:35.989Z,101054.70
2018-08-27T00:45:05.592Z,101059.56
2018-08-27T00:47:34.927Z,101055.23
2018-08-27T00:50:03.589Z,101058.56
2018-08-27T00:52:32.498Z,101060.03
2018-08-27T00:55:01.417Z,101055.78
2018-08-27T00:57:30.028Z,101048.61
2018-08-27T00:59:58.781Z,101052.19
2018-08-27T01:02:27.471Z,101046.97
2018-08-27T01:04:56.817Z,101035.11
2018-08-27T01:07:25.357Z,101026.87
2018-08-27T01:10:00.516Z,101031.09
2018-08-27T01:12:29.025Z,101028.52
2018-08-27T01:14:57.838Z,101031.41
2018-08-27T01:17:26.523Z,101030.30
2018-08-27T01:19:55.245Z,101037.14
2018-08-27T01:22:23.763Z,101031.64
2018-08-27T01:24:52.573Z,101022.59
2018-08-27T01:27:21.725Z,101023.08
2018-08-27T01:29:50.371Z,101017.71
2018-08-27T01:32:26.452Z,101014.44
2018-08-27T01:34:56.418Z,101017.54
2018-08-27T01:37:25.480Z,101015.06
2018-08-27T01:39:54.344Z,101018.78
2018-08-27T01:42:23.916Z,101016.03
2018-08-27T01:44:52.989Z,101013.91
2018-08-27T01:47:21.536Z,101014.38
2018-08-27T01:49:49.988Z,101006.26
2018-08-27T01:52:18.639Z,101014.44
2018-08-27T01:54:47.457Z,101011.96
2018-08-27T01:57:15.981Z,101013.35
2018-08-27T01:59:44.613Z,101013.55
2018-08-27T02:02:13.139Z,101008.02
2018-08-27T02:04:42.388Z,101007.38
2018-08-27T02:07:11.365Z,101002.08
2018-08-27T02:09:39.843Z,101007.81
2018-08-27T02:12:08.377Z,101001.36
2018-08-27T02:14:36.873Z,100997.23
2018-08-27T02:17:05.839Z,100998.00
2018-08-27T02:19:34.926Z,100998.66
2018-08-27T02:22:04.665Z,100995.30
2018-08-27T02:24:33.359Z,100997.10
2018-08-27T02:27:02.256Z,100988.55
2018-08-27T02:29:30.868Z,100996.23
2018-08-27T02:31:59.663Z,100991.77
2018-08-27T02:34:28.151Z,100989.77
2018-08-27T02:36:56.736Z,100989.45
2018-08-27T02:39:25.383Z,100989.95
2018-08-27T02:41:53.851Z,100984.24
2018-08-27T02:44:22.884Z,100982.27
2018-08-27T02:46:51.659Z,100973.98
2018-08-27T02:49:20.191Z,100973.11
2018-08-27T02:51:48.791Z,100982.45
2018-08-27T02:54:17.368Z,100973.94
2018-08-27T02:56:45.986Z,100966.22
2018-08-27T02:59:15.031Z,100961.48
2018-08-27T03:01:43.859Z,100959.08
2018-08-27T03:04:12.678Z,100962.63
2018-08-27T03:06:50.549Z,100955.75
2018-08-27T03:09:18.910Z,100956.56
2018-08-27T03:11:47.543Z,100946.96
2018-08-27T03:14:16.147Z,100950.00
2018-08-27T03:16:44.669Z,100949.72
2018-08-27T03:19:13.614Z,100953.28
2018-08-27T03:21:42.410Z,100952.20
2018-08-27T03:24:10.913Z,100950.91
2018-08-27T03:26:39.430Z,100950.08
2018-08-27T03:29:08.509Z,100949.11
2018-08-27T03:31:37.148Z,100945.91
2018-08-27T03:34:06.107Z,100942.98
2018-08-27T03:36:35.009Z,100944.12
2018-08-27T03:39:03.921Z,100940.31
2018-08-27T03:41:32.540Z,100940.58
2018-08-27T03:44:01.633Z,100943.66
2018-08-27T03:46:30.677Z,100931.34
2018-08-27T03:48:59.208Z,100935.49
2018-08-27T03:51:27.907Z,100939.34
2018-08-27T03:53:56.764Z,100935.30
2018-08-27T03:56:25.267Z,100946.36
2018-08-27T03:58:53.929Z,100947.00
